BTK8855 WIBB-WIII
Flight info
| Callsign | BTK8855 |
|---|---|
| Flight time | 1h 24m |
| Altitude | 37000 |
| Route | ISROR T5 BUNIK |
| Aircraft | A320/M-SDE3FGHIRWY/LB1 |
Departure
| Time | 2026-04-28 09:20 |
|---|---|
| Airport | Sultan Syarif Kasim II International Airport / Roesmin Nurjadin AFB (WIBB) |
Arrival
| Time | 2026-04-28 10:44 |
|---|---|
| Airport | Soekarno-Hatta International Airport (WIII) |
| Time | Latitude | Longitude | Altitude | Speed | Heading |
|---|---|---|---|---|---|
| 2026-04-28 08:56 | 0.46480 | 101.44682 | 140 ft | 0 kts | 91° |
| 2026-04-28 09:10 | 0.46480 | 101.44673 | 140 ft | 2 kts | 91° |
| 2026-04-28 09:10 | 0.46480 | 101.44658 | 140 ft | 2 kts | 91° |
| 2026-04-28 09:10 | 0.46480 | 101.44643 | 140 ft | 2 kts | 91° |
| 2026-04-28 09:11 | 0.46481 | 101.44630 | 140 ft | 0 kts | 91° |
| 2026-04-28 09:11 | 0.46480 | 101.44617 | 140 ft | 2 kts | 72° |
| 2026-04-28 09:11 | 0.46473 | 101.44604 | 140 ft | 2 kts | 50° |
| 2026-04-28 09:11 | 0.46461 | 101.44595 | 140 ft | 2 kts | 26° |
| 2026-04-28 09:12 | 0.46448 | 101.44590 | 140 ft | 0 kts | 5° |
| 2026-04-28 09:12 | 0.46441 | 101.44590 | 140 ft | 1 kts | 0° |
| 2026-04-28 09:12 | 0.46440 | 101.44590 | 140 ft | 0 kts | 1° |
| 2026-04-28 09:14 | 0.46444 | 101.44590 | 140 ft | 1 kts | 1° |
| 2026-04-28 09:15 | 0.46458 | 101.44590 | 140 ft | 2 kts | 1° |
| 2026-04-28 09:15 | 0.46481 | 101.44591 | 140 ft | 3 kts | 1° |
| 2026-04-28 09:15 | 0.46511 | 101.44591 | 141 ft | 4 kts | 1° |
| 2026-04-28 09:15 | 0.46541 | 101.44592 | 141 ft | 4 kts | 1° |
| 2026-04-28 09:16 | 0.46568 | 101.44593 | 142 ft | 3 kts | 1° |
| 2026-04-28 09:16 | 0.46598 | 101.44594 | 142 ft | 4 kts | 1° |
| 2026-04-28 09:16 | 0.46627 | 101.44580 | 142 ft | 5 kts | 295° |
| 2026-04-28 09:16 | 0.46631 | 101.44544 | 143 ft | 5 kts | 273° |
| 2026-04-28 09:17 | 0.46634 | 101.44507 | 143 ft | 5 kts | 273° |
| 2026-04-28 09:17 | 0.46645 | 101.44466 | 143 ft | 6 kts | 326° |
| 2026-04-28 09:17 | 0.46691 | 101.44467 | 143 ft | 7 kts | 6° |
| 2026-04-28 09:17 | 0.46752 | 101.44469 | 143 ft | 9 kts | 2° |
| 2026-04-28 09:18 | 0.46830 | 101.44473 | 143 ft | 12 kts | 2° |
| 2026-04-28 09:18 | 0.46926 | 101.44476 | 142 ft | 14 kts | 2° |
| 2026-04-28 09:18 | 0.47035 | 101.44491 | 140 ft | 14 kts | 24° |
| 2026-04-28 09:18 | 0.47085 | 101.44491 | 139 ft | 7 kts | 244° |
| 2026-04-28 09:19 | 0.47041 | 101.44477 | 140 ft | 8 kts | 183° |
| 2026-04-28 09:19 | 0.46860 | 101.44473 | 143 ft | 56 kts | 182° |
| 2026-04-28 09:19 | 0.46233 | 101.44456 | 139 ft | 121 kts | 182° |
| 2026-04-28 09:19 | 0.45190 | 101.44427 | 137 ft | 173 kts | 180° |
| 2026-04-28 09:20 | 0.43948 | 101.44397 | 636 ft | 177 kts | 180° |
| 2026-04-28 09:20 | 0.42721 | 101.44360 | 1315 ft | 175 kts | 180° |
| 2026-04-28 09:20 | 0.41530 | 101.44433 | 1888 ft | 169 kts | 155° |
| 2026-04-28 09:20 | 0.40678 | 101.45239 | 2150 ft | 173 kts | 114° |
| 2026-04-28 09:21 | 0.40198 | 101.46378 | 2409 ft | 185 kts | 113° |
| 2026-04-28 09:21 | 0.39443 | 101.47503 | 2694 ft | 199 kts | 128° |
| 2026-04-28 09:21 | 0.38481 | 101.48575 | 2963 ft | 214 kts | 130° |
| 2026-04-28 09:21 | 0.37416 | 101.49738 | 3153 ft | 236 kts | 130° |
| 2026-04-28 09:22 | 0.36277 | 101.51012 | 3482 ft | 253 kts | 130° |
| 2026-04-28 09:22 | 0.35069 | 101.52384 | 3863 ft | 268 kts | 129° |
| 2026-04-28 09:22 | 0.33831 | 101.53809 | 4525 ft | 272 kts | 129° |
| 2026-04-28 09:22 | 0.32578 | 101.55260 | 5256 ft | 274 kts | 129° |
| 2026-04-28 09:23 | 0.31333 | 101.56709 | 5985 ft | 276 kts | 129° |
| 2026-04-28 09:23 | 0.30064 | 101.58186 | 6723 ft | 279 kts | 129° |
| 2026-04-28 09:23 | 0.28787 | 101.59676 | 7491 ft | 281 kts | 129° |
| 2026-04-28 09:23 | 0.27489 | 101.61193 | 8219 ft | 284 kts | 129° |
| 2026-04-28 09:24 | 0.26186 | 101.62717 | 8931 ft | 287 kts | 129° |
| 2026-04-28 09:24 | 0.24872 | 101.64255 | 9626 ft | 290 kts | 129° |
| 2026-04-28 09:24 | 0.23532 | 101.65824 | 10279 ft | 294 kts | 129° |
| 2026-04-28 09:24 | 0.22153 | 101.67440 | 10707 ft | 307 kts | 129° |
| 2026-04-28 09:25 | 0.20703 | 101.69142 | 11022 ft | 323 kts | 129° |
| 2026-04-28 09:25 | 0.19213 | 101.70886 | 11543 ft | 330 kts | 129° |
| 2026-04-28 09:25 | 0.17703 | 101.72654 | 12168 ft | 333 kts | 129° |
| 2026-04-28 09:25 | 0.16174 | 101.74445 | 12784 ft | 335 kts | 129° |
| 2026-04-28 09:26 | 0.14649 | 101.76230 | 13385 ft | 337 kts | 129° |
| 2026-04-28 09:26 | 0.13094 | 101.78048 | 13967 ft | 340 kts | 129° |
| 2026-04-28 09:26 | 0.11536 | 101.79872 | 14521 ft | 343 kts | 129° |
| 2026-04-28 09:26 | 0.09981 | 101.81693 | 15052 ft | 346 kts | 129° |
| 2026-04-28 09:27 | 0.06810 | 101.85406 | 16100 ft | 351 kts | 129° |
| 2026-04-28 09:27 | 0.05204 | 101.87286 | 16615 ft | 353 kts | 128° |
| 2026-04-28 09:27 | 0.03585 | 101.89181 | 17112 ft | 356 kts | 128° |
| 2026-04-28 09:28 | 0.01956 | 101.91088 | 17612 ft | 357 kts | 128° |
| 2026-04-28 09:28 | 0.00402 | 101.92910 | 18066 ft | 359 kts | 128° |
| 2026-04-28 09:28 | -0.01264 | 101.94861 | 18527 ft | 362 kts | 128° |
| 2026-04-28 09:28 | -0.02905 | 101.96784 | 18963 ft | 364 kts | 128° |
| 2026-04-28 09:29 | -0.04566 | 101.98730 | 19408 ft | 366 kts | 129° |
| 2026-04-28 09:29 | -0.06237 | 102.00684 | 19833 ft | 368 kts | 128° |
| 2026-04-28 09:29 | -0.07915 | 102.02651 | 20244 ft | 370 kts | 128° |
| 2026-04-28 09:29 | -0.09604 | 102.04629 | 20635 ft | 372 kts | 128° |
| 2026-04-28 09:30 | -0.11300 | 102.06612 | 21049 ft | 374 kts | 128° |
| 2026-04-28 09:30 | -0.13012 | 102.08619 | 21459 ft | 375 kts | 128° |
| 2026-04-28 09:30 | -0.14728 | 102.10628 | 21836 ft | 377 kts | 128° |
| 2026-04-28 09:30 | -0.16437 | 102.12628 | 22226 ft | 378 kts | 128° |
| 2026-04-28 09:31 | -0.18171 | 102.14660 | 22593 ft | 380 kts | 128° |
| 2026-04-28 09:31 | -0.19890 | 102.16672 | 22937 ft | 382 kts | 128° |
| 2026-04-28 09:31 | -0.21646 | 102.18729 | 23272 ft | 385 kts | 128° |
| 2026-04-28 09:31 | -0.23411 | 102.20795 | 23610 ft | 387 kts | 128° |
| 2026-04-28 09:32 | -0.25181 | 102.22868 | 23941 ft | 390 kts | 128° |
| 2026-04-28 09:32 | -0.26963 | 102.24953 | 24284 ft | 391 kts | 128° |
| 2026-04-28 09:32 | -0.28754 | 102.27052 | 24609 ft | 393 kts | 128° |
| 2026-04-28 09:32 | -0.30552 | 102.29157 | 24929 ft | 395 kts | 128° |
| 2026-04-28 09:33 | -0.32360 | 102.31274 | 25245 ft | 397 kts | 128° |
| 2026-04-28 09:33 | -0.34158 | 102.33379 | 25543 ft | 399 kts | 128° |
| 2026-04-28 09:33 | -0.35988 | 102.35523 | 25839 ft | 401 kts | 128° |
| 2026-04-28 09:33 | -0.37806 | 102.37653 | 26123 ft | 404 kts | 128° |
| 2026-04-28 09:34 | -0.39656 | 102.39820 | 26404 ft | 406 kts | 128° |
| 2026-04-28 09:34 | -0.41494 | 102.41972 | 26691 ft | 407 kts | 128° |
| 2026-04-28 09:34 | -0.43360 | 102.44158 | 26966 ft | 409 kts | 128° |
| 2026-04-28 09:34 | -0.45238 | 102.46357 | 27230 ft | 412 kts | 128° |
| 2026-04-28 09:35 | -0.47093 | 102.48529 | 27491 ft | 413 kts | 128° |
| 2026-04-28 09:35 | -0.48984 | 102.50743 | 27772 ft | 415 kts | 128° |
| 2026-04-28 09:35 | -0.50876 | 102.52960 | 28030 ft | 417 kts | 128° |
| 2026-04-28 09:35 | -0.52777 | 102.55187 | 28280 ft | 418 kts | 128° |
| 2026-04-28 09:36 | -0.54674 | 102.57407 | 28541 ft | 420 kts | 128° |
| 2026-04-28 09:36 | -0.56595 | 102.59657 | 28816 ft | 421 kts | 128° |
| 2026-04-28 09:36 | -0.58525 | 102.61918 | 29067 ft | 423 kts | 128° |
| 2026-04-28 09:36 | -0.60440 | 102.64162 | 29310 ft | 424 kts | 128° |
| 2026-04-28 09:37 | -0.62378 | 102.66429 | 29574 ft | 426 kts | 128° |
| 2026-04-28 09:37 | -0.64316 | 102.68700 | 29856 ft | 426 kts | 128° |
| 2026-04-28 09:37 | -0.66268 | 102.70986 | 30114 ft | 428 kts | 128° |
| 2026-04-28 09:37 | -0.68199 | 102.73248 | 30358 ft | 429 kts | 128° |
| 2026-04-28 09:38 | -0.70171 | 102.75558 | 30587 ft | 431 kts | 128° |
| 2026-04-28 09:38 | -0.72120 | 102.77842 | 30827 ft | 432 kts | 128° |
| 2026-04-28 09:38 | -0.74099 | 102.80158 | 31071 ft | 433 kts | 128° |
| 2026-04-28 09:38 | -0.76083 | 102.82483 | 31315 ft | 434 kts | 128° |
| 2026-04-28 09:39 | -0.78065 | 102.84804 | 31555 ft | 435 kts | 128° |
| 2026-04-28 09:39 | -0.80056 | 102.87135 | 31769 ft | 437 kts | 128° |
| 2026-04-28 09:39 | -0.82043 | 102.89462 | 31991 ft | 438 kts | 127° |
| 2026-04-28 09:39 | -0.84054 | 102.91819 | 32208 ft | 439 kts | 128° |
| 2026-04-28 09:40 | -0.86083 | 102.94196 | 32408 ft | 440 kts | 127° |
| 2026-04-28 09:40 | -0.88082 | 102.96538 | 32615 ft | 441 kts | 127° |
| 2026-04-28 09:40 | -0.90074 | 102.98872 | 32914 ft | 440 kts | 128° |
| 2026-04-28 09:40 | -0.92086 | 103.01231 | 33253 ft | 438 kts | 128° |
| 2026-04-28 09:41 | -0.94063 | 103.03546 | 33572 ft | 437 kts | 128° |
| 2026-04-28 09:41 | -0.96060 | 103.05886 | 33866 ft | 437 kts | 128° |
| 2026-04-28 09:41 | -0.98035 | 103.08201 | 34140 ft | 437 kts | 128° |
| 2026-04-28 09:41 | -1.00033 | 103.10541 | 34414 ft | 437 kts | 128° |
| 2026-04-28 09:42 | -1.02026 | 103.12877 | 34681 ft | 437 kts | 128° |
| 2026-04-28 09:42 | -1.04014 | 103.15207 | 34963 ft | 436 kts | 128° |
| 2026-04-28 09:42 | -1.06007 | 103.17541 | 35204 ft | 437 kts | 128° |
| 2026-04-28 09:42 | -1.07996 | 103.19873 | 35390 ft | 438 kts | 128° |
| 2026-04-28 09:43 | -1.10024 | 103.22249 | 35539 ft | 440 kts | 128° |
| 2026-04-28 09:43 | -1.12001 | 103.24566 | 35699 ft | 441 kts | 128° |
| 2026-04-28 09:43 | -1.14013 | 103.26923 | 35881 ft | 441 kts | 128° |
| 2026-04-28 09:43 | -1.16028 | 103.29285 | 36041 ft | 442 kts | 128° |
| 2026-04-28 09:44 | -1.18051 | 103.31654 | 36171 ft | 443 kts | 128° |
| 2026-04-28 09:44 | -1.20057 | 103.34005 | 36292 ft | 444 kts | 128° |
| 2026-04-28 09:44 | -1.22083 | 103.36378 | 36410 ft | 444 kts | 128° |
| 2026-04-28 09:44 | -1.24116 | 103.38762 | 36524 ft | 445 kts | 128° |
| 2026-04-28 09:45 | -1.26121 | 103.41111 | 36653 ft | 446 kts | 129° |
| 2026-04-28 09:45 | -1.28166 | 103.43507 | 36757 ft | 447 kts | 128° |
| 2026-04-28 09:45 | -1.32243 | 103.48284 | 36781 ft | 448 kts | 128° |
| 2026-04-28 09:46 | -1.36320 | 103.53064 | 36786 ft | 448 kts | 129° |
| 2026-04-28 09:46 | -1.40396 | 103.57842 | 36790 ft | 449 kts | 129° |
| 2026-04-28 09:47 | -1.44487 | 103.62637 | 36791 ft | 448 kts | 129° |
| 2026-04-28 09:47 | -1.48548 | 103.67397 | 36791 ft | 448 kts | 129° |
| 2026-04-28 09:48 | -1.52621 | 103.72172 | 36790 ft | 448 kts | 129° |
| 2026-04-28 09:48 | -1.56693 | 103.76945 | 36791 ft | 448 kts | 129° |
| 2026-04-28 09:49 | -1.60786 | 103.81746 | 36791 ft | 449 kts | 129° |
| 2026-04-28 09:49 | -1.64868 | 103.86533 | 36795 ft | 449 kts | 129° |
| 2026-04-28 09:50 | -1.68933 | 103.91298 | 36796 ft | 449 kts | 129° |
| 2026-04-28 09:50 | -1.73035 | 103.96111 | 36796 ft | 449 kts | 129° |
| 2026-04-28 09:51 | -1.77120 | 104.00900 | 36794 ft | 449 kts | 129° |
| 2026-04-28 09:51 | -1.81203 | 104.05689 | 36794 ft | 448 kts | 129° |
| 2026-04-28 09:52 | -1.85816 | 104.10005 | 36794 ft | 451 kts | 138° |
| 2026-04-28 09:52 | -1.90684 | 104.14055 | 36790 ft | 451 kts | 138° |
| 2026-04-28 09:53 | -1.95577 | 104.18150 | 36798 ft | 450 kts | 138° |
| 2026-04-28 09:53 | -2.00401 | 104.22210 | 36804 ft | 450 kts | 138° |
| 2026-04-28 09:54 | -2.05271 | 104.26317 | 36806 ft | 450 kts | 138° |
| 2026-04-28 09:54 | -2.10095 | 104.30388 | 36806 ft | 451 kts | 138° |
| 2026-04-28 09:55 | -2.14978 | 104.34512 | 36805 ft | 450 kts | 138° |
| 2026-04-28 09:55 | -2.19805 | 104.38588 | 36799 ft | 450 kts | 138° |
| 2026-04-28 09:56 | -2.24630 | 104.42664 | 36791 ft | 450 kts | 138° |
| 2026-04-28 09:56 | -2.29476 | 104.46757 | 36783 ft | 451 kts | 138° |
| 2026-04-28 09:57 | -2.34316 | 104.50846 | 36784 ft | 451 kts | 138° |
| 2026-04-28 09:57 | -2.39178 | 104.54954 | 36784 ft | 451 kts | 138° |
| 2026-04-28 09:58 | -2.43993 | 104.59023 | 36785 ft | 450 kts | 138° |
| 2026-04-28 09:58 | -2.48848 | 104.63126 | 36786 ft | 450 kts | 138° |
| 2026-04-28 09:59 | -2.53687 | 104.67216 | 36788 ft | 451 kts | 138° |
| 2026-04-28 09:59 | -2.58561 | 104.71335 | 36787 ft | 451 kts | 138° |
| 2026-04-28 10:00 | -2.63411 | 104.75434 | 36789 ft | 451 kts | 138° |
| 2026-04-28 10:00 | -2.68273 | 104.79546 | 36791 ft | 451 kts | 138° |
| 2026-04-28 10:01 | -2.73145 | 104.83665 | 36790 ft | 450 kts | 138° |
| 2026-04-28 10:01 | -2.78001 | 104.87770 | 36792 ft | 450 kts | 138° |
| 2026-04-28 10:02 | -2.82795 | 104.91824 | 36791 ft | 450 kts | 137° |
| 2026-04-28 10:02 | -2.87627 | 104.95913 | 36790 ft | 450 kts | 138° |
| 2026-04-28 10:03 | -2.92458 | 104.99998 | 36791 ft | 450 kts | 137° |
| 2026-04-28 10:03 | -2.97302 | 105.04095 | 36791 ft | 451 kts | 137° |
| 2026-04-28 10:04 | -3.02133 | 105.08182 | 36790 ft | 451 kts | 137° |
| 2026-04-28 10:04 | -3.06950 | 105.12260 | 36791 ft | 451 kts | 137° |
| 2026-04-28 10:05 | -3.11756 | 105.16329 | 36801 ft | 451 kts | 137° |
| 2026-04-28 10:05 | -3.16597 | 105.20425 | 36808 ft | 451 kts | 137° |
| 2026-04-28 10:06 | -3.21421 | 105.24509 | 36809 ft | 451 kts | 137° |
| 2026-04-28 10:06 | -3.26250 | 105.28594 | 36810 ft | 451 kts | 137° |
| 2026-04-28 10:07 | -3.31128 | 105.32672 | 36808 ft | 452 kts | 138° |
| 2026-04-28 10:07 | -3.35988 | 105.36723 | 36806 ft | 452 kts | 138° |
| 2026-04-28 10:08 | -3.40853 | 105.40782 | 36799 ft | 452 kts | 138° |
| 2026-04-28 10:08 | -3.45735 | 105.44859 | 36795 ft | 452 kts | 138° |
| 2026-04-28 10:09 | -3.50584 | 105.48907 | 36794 ft | 451 kts | 138° |
| 2026-04-28 10:09 | -3.55430 | 105.52956 | 36795 ft | 451 kts | 138° |
| 2026-04-28 10:10 | -3.60287 | 105.57014 | 36798 ft | 451 kts | 138° |
| 2026-04-28 10:10 | -3.65163 | 105.61086 | 36801 ft | 451 kts | 138° |
| 2026-04-28 10:11 | -3.70038 | 105.65156 | 36802 ft | 451 kts | 138° |
| 2026-04-28 10:11 | -3.74900 | 105.69218 | 36802 ft | 452 kts | 138° |
| 2026-04-28 10:12 | -3.79764 | 105.73281 | 36804 ft | 452 kts | 138° |
| 2026-04-28 10:12 | -3.84635 | 105.77351 | 36803 ft | 451 kts | 138° |
| 2026-04-28 10:13 | -3.89505 | 105.81422 | 36804 ft | 451 kts | 138° |
| 2026-04-28 10:13 | -3.94389 | 105.85505 | 36804 ft | 451 kts | 139° |
| 2026-04-28 10:14 | -3.99234 | 105.89554 | 36804 ft | 451 kts | 139° |
| 2026-04-28 10:14 | -4.04117 | 105.93636 | 36806 ft | 451 kts | 139° |
| 2026-04-28 10:15 | -4.08985 | 105.97707 | 36808 ft | 451 kts | 138° |
| 2026-04-28 10:15 | -4.13872 | 106.01794 | 36808 ft | 451 kts | 139° |
| 2026-04-28 10:16 | -4.18720 | 106.05851 | 36808 ft | 451 kts | 139° |
| 2026-04-28 10:16 | -4.23592 | 106.09927 | 36809 ft | 450 kts | 139° |
| 2026-04-28 10:17 | -4.28416 | 106.13963 | 36808 ft | 450 kts | 139° |
| 2026-04-28 10:17 | -4.33277 | 106.18031 | 36808 ft | 451 kts | 139° |
| 2026-04-28 10:18 | -4.38131 | 106.22093 | 36810 ft | 452 kts | 139° |
| 2026-04-28 10:18 | -4.42990 | 106.26160 | 36812 ft | 451 kts | 139° |
| 2026-04-28 10:19 | -4.47826 | 106.30211 | 36818 ft | 451 kts | 138° |
| 2026-04-28 10:19 | -4.52690 | 106.34285 | 36822 ft | 451 kts | 139° |
| 2026-04-28 10:20 | -4.57542 | 106.38349 | 36829 ft | 451 kts | 139° |
| 2026-04-28 10:20 | -4.62397 | 106.42418 | 36829 ft | 452 kts | 139° |
| 2026-04-28 10:21 | -4.67290 | 106.46517 | 36660 ft | 453 kts | 139° |
| 2026-04-28 10:21 | -4.69722 | 106.48556 | 35713 ft | 457 kts | 138° |
| 2026-04-28 10:21 | -4.72190 | 106.50623 | 34852 ft | 458 kts | 138° |
| 2026-04-28 10:22 | -4.74681 | 106.52711 | 34042 ft | 457 kts | 138° |
| 2026-04-28 10:22 | -4.77143 | 106.54763 | 33255 ft | 456 kts | 140° |
| 2026-04-28 10:22 | -4.79793 | 106.56524 | 32143 ft | 458 kts | 150° |
| 2026-04-28 10:22 | -4.82711 | 106.57825 | 30721 ft | 459 kts | 159° |
| 2026-04-28 10:23 | -4.85803 | 106.58655 | 29408 ft | 455 kts | 168° |
| 2026-04-28 10:23 | -4.88909 | 106.59015 | 28213 ft | 448 kts | 176° |
| 2026-04-28 10:23 | -4.92016 | 106.58930 | 27066 ft | 441 kts | 184° |
| 2026-04-28 10:23 | -4.95071 | 106.58411 | 25903 ft | 434 kts | 191° |
| 2026-04-28 10:24 | -4.97991 | 106.57710 | 24794 ft | 430 kts | 192° |
| 2026-04-28 10:24 | -5.00926 | 106.56975 | 24214 ft | 422 kts | 192° |
| 2026-04-28 10:24 | -5.03796 | 106.56252 | 23758 ft | 414 kts | 192° |
| 2026-04-28 10:24 | -5.06612 | 106.55546 | 23301 ft | 408 kts | 192° |
| 2026-04-28 10:25 | -5.09392 | 106.54853 | 22838 ft | 402 kts | 192° |
| 2026-04-28 10:25 | -5.12129 | 106.54173 | 22371 ft | 397 kts | 192° |
| 2026-04-28 10:25 | -5.14831 | 106.53504 | 21922 ft | 393 kts | 192° |
| 2026-04-28 10:25 | -5.17494 | 106.52846 | 21445 ft | 389 kts | 192° |
| 2026-04-28 10:26 | -5.20158 | 106.52187 | 20947 ft | 387 kts | 192° |
| 2026-04-28 10:26 | -5.22796 | 106.51535 | 20442 ft | 385 kts | 192° |
| 2026-04-28 10:26 | -5.25427 | 106.50886 | 19937 ft | 383 kts | 192° |
| 2026-04-28 10:26 | -5.28044 | 106.50240 | 19432 ft | 381 kts | 192° |
| 2026-04-28 10:27 | -5.30647 | 106.49596 | 18928 ft | 380 kts | 192° |
| 2026-04-28 10:27 | -5.33242 | 106.48955 | 18425 ft | 378 kts | 192° |
| 2026-04-28 10:27 | -5.35795 | 106.48325 | 17937 ft | 377 kts | 192° |
| 2026-04-28 10:27 | -5.38369 | 106.47688 | 17445 ft | 375 kts | 192° |
| 2026-04-28 10:28 | -5.40908 | 106.47061 | 16958 ft | 374 kts | 192° |
| 2026-04-28 10:28 | -5.43453 | 106.46433 | 16482 ft | 372 kts | 192° |
| 2026-04-28 10:28 | -5.45984 | 106.45808 | 16015 ft | 370 kts | 192° |
| 2026-04-28 10:29 | -5.50981 | 106.44573 | 15101 ft | 365 kts | 192° |
| 2026-04-28 10:29 | -5.53441 | 106.43964 | 14651 ft | 363 kts | 192° |
| 2026-04-28 10:29 | -5.55929 | 106.43349 | 14201 ft | 360 kts | 192° |
| 2026-04-28 10:29 | -5.58380 | 106.42743 | 13745 ft | 358 kts | 192° |
| 2026-04-28 10:30 | -5.60819 | 106.42140 | 13298 ft | 355 kts | 192° |
| 2026-04-28 10:30 | -5.63207 | 106.41550 | 12858 ft | 352 kts | 192° |
| 2026-04-28 10:30 | -5.65603 | 106.40957 | 12413 ft | 349 kts | 192° |
| 2026-04-28 10:30 | -5.67978 | 106.40369 | 11970 ft | 346 kts | 191° |
| 2026-04-28 10:31 | -5.70339 | 106.39785 | 11530 ft | 343 kts | 192° |
| 2026-04-28 10:31 | -5.72689 | 106.39204 | 11098 ft | 339 kts | 191° |
| 2026-04-28 10:31 | -5.74984 | 106.38636 | 10669 ft | 336 kts | 191° |
| 2026-04-28 10:31 | -5.77268 | 106.38071 | 10240 ft | 333 kts | 191° |
| 2026-04-28 10:32 | -5.79545 | 106.37507 | 10012 ft | 321 kts | 192° |
| 2026-04-28 10:32 | -5.81684 | 106.36977 | 9894 ft | 308 kts | 192° |
| 2026-04-28 10:32 | -5.83758 | 106.36462 | 9681 ft | 299 kts | 191° |
| 2026-04-28 10:32 | -5.85820 | 106.35951 | 9297 ft | 297 kts | 192° |
| 2026-04-28 10:33 | -5.87824 | 106.35455 | 8931 ft | 295 kts | 191° |
| 2026-04-28 10:33 | -5.89854 | 106.34953 | 8563 ft | 293 kts | 192° |
| 2026-04-28 10:33 | -5.91851 | 106.34459 | 8199 ft | 291 kts | 191° |
| 2026-04-28 10:33 | -5.93829 | 106.33968 | 7841 ft | 289 kts | 192° |
| 2026-04-28 10:34 | -5.95805 | 106.33478 | 7496 ft | 287 kts | 192° |
| 2026-04-28 10:34 | -5.97735 | 106.33001 | 7257 ft | 281 kts | 192° |
| 2026-04-28 10:34 | -5.99596 | 106.32538 | 7198 ft | 268 kts | 192° |
| 2026-04-28 10:34 | -6.01396 | 106.32090 | 7144 ft | 255 kts | 192° |
| 2026-04-28 10:35 | -6.03081 | 106.31672 | 7071 ft | 243 kts | 191° |
| 2026-04-28 10:35 | -6.04754 | 106.31467 | 6995 ft | 237 kts | 175° |
| 2026-04-28 10:35 | -6.06398 | 106.31667 | 7008 ft | 236 kts | 168° |
| 2026-04-28 10:35 | -6.08038 | 106.31963 | 6998 ft | 236 kts | 167° |
| 2026-04-28 10:36 | -6.09673 | 106.32268 | 6737 ft | 238 kts | 167° |
| 2026-04-28 10:36 | -6.11329 | 106.32572 | 6428 ft | 238 kts | 168° |
| 2026-04-28 10:36 | -6.12987 | 106.32871 | 6133 ft | 238 kts | 168° |
| 2026-04-28 10:36 | -6.14641 | 106.33165 | 5840 ft | 238 kts | 168° |
| 2026-04-28 10:37 | -6.16284 | 106.33455 | 5555 ft | 237 kts | 168° |
| 2026-04-28 10:37 | -6.17916 | 106.33743 | 5271 ft | 236 kts | 168° |
| 2026-04-28 10:37 | -6.19535 | 106.34035 | 5039 ft | 232 kts | 165° |
| 2026-04-28 10:37 | -6.20946 | 106.34739 | 4988 ft | 224 kts | 129° |
| 2026-04-28 10:38 | -6.21793 | 106.36053 | 5004 ft | 224 kts | 118° |
| 2026-04-28 10:38 | -6.22583 | 106.37428 | 5002 ft | 224 kts | 119° |
| 2026-04-28 10:38 | -6.23384 | 106.38790 | 4997 ft | 224 kts | 115° |
| 2026-04-28 10:38 | -6.23712 | 106.40305 | 4775 ft | 223 kts | 83° |
| 2026-04-28 10:39 | -6.23329 | 106.41804 | 4495 ft | 222 kts | 69° |
| 2026-04-28 10:39 | -6.22736 | 106.43251 | 4204 ft | 222 kts | 67° |
| 2026-04-28 10:39 | -6.22123 | 106.44676 | 3911 ft | 220 kts | 67° |
| 2026-04-28 10:39 | -6.21542 | 106.46062 | 3624 ft | 212 kts | 68° |
| 2026-04-28 10:40 | -6.20989 | 106.47421 | 3350 ft | 202 kts | 68° |
| 2026-04-28 10:40 | -6.20480 | 106.48698 | 3140 ft | 190 kts | 69° |
| 2026-04-28 10:40 | -6.19996 | 106.49921 | 2941 ft | 187 kts | 68° |
| 2026-04-28 10:40 | -6.19513 | 106.51143 | 2688 ft | 185 kts | 68° |
| 2026-04-28 10:41 | -6.19038 | 106.52346 | 2434 ft | 184 kts | 68° |
| 2026-04-28 10:41 | -6.18564 | 106.53542 | 2185 ft | 182 kts | 68° |
| 2026-04-28 10:41 | -6.18111 | 106.54684 | 1939 ft | 170 kts | 68° |
| 2026-04-28 10:41 | -6.17685 | 106.55756 | 1731 ft | 161 kts | 67° |
| 2026-04-28 10:42 | -6.17268 | 106.56807 | 1552 ft | 161 kts | 67° |
| 2026-04-28 10:42 | -6.16851 | 106.57853 | 1350 ft | 156 kts | 67° |
| 2026-04-28 10:42 | -6.16458 | 106.58843 | 1152 ft | 145 kts | 67° |
| 2026-04-28 10:42 | -6.16084 | 106.59780 | 977 ft | 144 kts | 67° |
| 2026-04-28 10:43 | -6.15705 | 106.60731 | 797 ft | 144 kts | 66° |
| 2026-04-28 10:43 | -6.15335 | 106.61661 | 617 ft | 144 kts | 66° |
| 2026-04-28 10:43 | -6.14968 | 106.62605 | 438 ft | 144 kts | 66° |
| 2026-04-28 10:43 | -6.14583 | 106.63539 | 235 ft | 144 kts | 65° |
| 2026-04-28 10:44 | -6.14208 | 106.64480 | 81 ft | 144 kts | 66° |
| 2026-04-28 10:44 | -6.13858 | 106.65356 | 47 ft | 116 kts | 66° |
| 2026-04-28 10:44 | -6.13618 | 106.65951 | 47 ft | 66 kts | 70° |
| 2026-04-28 10:44 | -6.13466 | 106.66223 | 47 ft | 32 kts | 49° |
| 2026-04-28 10:45 | -6.13324 | 106.66290 | 47 ft | 18 kts | 317° |
| 2026-04-28 10:45 | -6.13341 | 106.66172 | 47 ft | 17 kts | 249° |
| 2026-04-28 10:45 | -6.13385 | 106.66052 | 47 ft | 18 kts | 249° |
| 2026-04-28 10:45 | -6.13434 | 106.65932 | 47 ft | 18 kts | 246° |
| 2026-04-28 10:46 | -6.13486 | 106.65811 | 47 ft | 19 kts | 248° |
| 2026-04-28 10:46 | -6.13535 | 106.65686 | 47 ft | 19 kts | 249° |
| 2026-04-28 10:46 | -6.13586 | 106.65559 | 47 ft | 19 kts | 248° |
| 2026-04-28 10:46 | -6.13638 | 106.65428 | 47 ft | 19 kts | 248° |
| 2026-04-28 10:47 | -6.13690 | 106.65299 | 47 ft | 20 kts | 248° |
| 2026-04-28 10:47 | -6.13742 | 106.65166 | 47 ft | 20 kts | 249° |
| 2026-04-28 10:47 | -6.13728 | 106.65053 | 47 ft | 17 kts | 336° |
| 2026-04-28 10:47 | -6.13613 | 106.65002 | 47 ft | 18 kts | 338° |
| 2026-04-28 10:48 | -6.13493 | 106.64955 | 47 ft | 18 kts | 339° |
| 2026-04-28 10:48 | -6.13371 | 106.64908 | 47 ft | 18 kts | 338° |
| 2026-04-28 10:48 | -6.13249 | 106.64857 | 47 ft | 18 kts | 338° |
| 2026-04-28 10:48 | -6.13124 | 106.64809 | 47 ft | 19 kts | 338° |
| 2026-04-28 10:49 | -6.13018 | 106.64765 | 58 ft | 12 kts | 336° |
| 2026-04-28 10:49 | -6.12965 | 106.64743 | 64 ft | 4 kts | 338° |
| 2026-04-28 10:49 | -6.12958 | 106.64740 | 65 ft | 0 kts | 338° |
| 2026-04-28 10:49 | -6.12923 | 106.64726 | 67 ft | 7 kts | 338° |
| 2026-04-28 10:50 | -6.12844 | 106.64696 | 57 ft | 13 kts | 340° |
| 2026-04-28 10:50 | -6.12774 | 106.64670 | 49 ft | 19 kts | 341° |
| 2026-04-28 10:50 | -6.12660 | 106.64779 | 47 ft | 19 kts | 67° |
| 2026-04-28 10:50 | -6.12592 | 106.64868 | 47 ft | 13 kts | 5° |
| 2026-04-28 10:51 | -6.12514 | 106.64839 | 47 ft | 10 kts | 336° |
| 2026-04-28 10:51 | -6.12480 | 106.64844 | 47 ft | 5 kts | 69° |
| 2026-04-28 10:51 | -6.12464 | 106.64889 | 47 ft | 7 kts | 68° |
| 2026-04-28 10:51 | -6.12450 | 106.64926 | 47 ft | 3 kts | 69° |
| 2026-04-28 10:52 | -6.12448 | 106.64932 | 47 ft | 0 kts | 69° |